createdAt,value
2023-02-05T00:00:41.151Z,6.72
2023-02-05T00:03:11.994Z,8.55
2023-02-05T00:05:42.799Z,7.93
2023-02-05T00:08:16.248Z,8.23
2023-02-05T00:10:47.155Z,7.47
2023-02-05T00:13:17.978Z,7.75
2023-02-05T00:15:49.127Z,7.63
2023-02-05T00:18:19.958Z,6.43
2023-02-05T00:20:50.905Z,6.13
2023-02-05T00:23:24.194Z,6.15
2023-02-05T00:25:55.060Z,6.35
2023-02-05T00:28:25.923Z,6.07
2023-02-05T00:30:56.893Z,5.90
2023-02-05T00:33:27.799Z,6.32
2023-02-05T00:35:58.749Z,6.68
2023-02-05T00:38:32.247Z,5.97
2023-02-05T00:41:03.491Z,6.45
2023-02-05T00:43:34.439Z,6.70
2023-02-05T00:46:05.510Z,5.90
2023-02-05T00:48:36.332Z,5.82
2023-02-05T00:51:07.399Z,6.28
2023-02-05T00:53:41.002Z,5.75
2023-02-05T00:56:11.859Z,5.75
2023-02-05T00:58:47.591Z,5.20
2023-02-05T01:01:18.923Z,5.40
2023-02-05T01:03:49.738Z,6.68
2023-02-05T01:06:21.214Z,5.45
2023-02-05T01:08:54.628Z,6.32
2023-02-05T01:11:25.448Z,7.85
2023-02-05T01:13:56.366Z,8.40
2023-02-05T01:16:27.552Z,8.82
2023-02-05T01:18:59.263Z,7.93
2023-02-05T01:21:30.166Z,6.82
2023-02-05T01:24:03.554Z,6.53
2023-02-05T01:26:34.370Z,6.38
2023-02-05T01:29:05.710Z,6.47
2023-02-05T01:31:36.697Z,6.82
2023-02-05T01:34:07.559Z,7.18
2023-02-05T01:36:38.402Z,8.30
2023-02-05T01:39:12.414Z,7.85
2023-02-05T01:41:45.800Z,7.80
2023-02-05T01:44:19.401Z,7.07
2023-02-05T01:46:51.139Z,7.15
2023-02-05T01:49:26.890Z,6.93
2023-02-05T01:52:01.338Z,7.05
2023-02-05T01:54:36.943Z,6.95
2023-02-05T01:57:12.819Z,6.43
2023-02-05T01:59:46.601Z,7.05
2023-02-05T02:02:17.589Z,7.05
2023-02-05T02:04:54.378Z,7.57
2023-02-05T02:07:27.794Z,7.38
2023-02-05T02:10:02.065Z,7.70
2023-02-05T02:12:36.865Z,7.15
2023-02-05T02:15:11.582Z,7.05
2023-02-05T02:17:46.141Z,7.15
2023-02-05T02:20:20.016Z,7.85
2023-02-05T02:23:08.396Z,7.85
2023-02-05T02:25:55.598Z,6.85
2023-02-05T02:28:31.978Z,7.30
2023-02-05T02:31:07.772Z,7.32
2023-02-05T02:33:45.765Z,6.72
2023-02-05T02:36:23.783Z,19.17
2023-02-05T02:39:00.158Z,33.80
2023-02-05T02:41:34.088Z,23.40
2023-02-05T02:44:10.316Z,30.40
2023-02-05T02:46:45.253Z,28.85
2023-02-05T02:49:20.441Z,18.00
2023-02-05T02:51:54.600Z,14.73
2023-02-05T02:54:28.921Z,10.38
2023-02-05T02:57:01.178Z,8.25
2023-02-05T02:59:38.307Z,8.55
2023-02-05T03:02:12.610Z,7.65
2023-02-05T03:04:45.664Z,7.57
2023-02-05T03:07:21.901Z,9.18
2023-02-05T03:09:58.738Z,7.93
2023-02-05T03:12:29.612Z,7.35
2023-02-05T03:15:03.718Z,8.60
2023-02-05T03:17:34.844Z,11.20
2023-02-05T03:20:12.929Z,11.95
2023-02-05T03:22:44.151Z,8.80
2023-02-05T03:25:15.263Z,8.90
2023-02-05T03:27:46.934Z,9.27
2023-02-05T03:30:21.220Z,9.65
2023-02-05T03:33:03.378Z,9.77
2023-02-05T03:35:39.594Z,8.45
2023-02-05T03:40:53.491Z,8.88
2023-02-05T03:43:34.727Z,9.93
2023-02-05T03:46:13.330Z,9.30
2023-02-05T03:48:58.411Z,9.48
2023-02-05T03:51:38.361Z,8.57
2023-02-05T03:54:21.721Z,9.48
2023-02-05T03:56:59.625Z,10.10
2023-02-05T03:59:33.441Z,11.48
2023-02-05T04:02:08.695Z,10.27
2023-02-05T04:04:44.275Z,9.40
2023-02-05T04:07:15.350Z,9.88
2023-02-05T04:09:46.215Z,10.13
2023-02-05T04:12:17.983Z,9.07
2023-02-05T04:14:49.426Z,9.15
2023-02-05T04:17:22.916Z,9.40
2023-02-05T04:19:54.061Z,8.85
2023-02-05T04:22:24.850Z,8.27
2023-02-05T04:24:56.080Z,8.10
2023-02-05T04:27:27.089Z,8.60
2023-02-05T04:29:59.492Z,7.78
2023-02-05T04:32:33.714Z,7.70
2023-02-05T04:35:05.293Z,7.78
2023-02-05T04:37:36.277Z,7.47
2023-02-05T04:40:08.906Z,7.57
2023-02-05T04:42:39.874Z,7.18
2023-02-05T04:45:12.068Z,7.90
2023-02-05T04:47:45.473Z,6.93
2023-02-05T04:50:16.291Z,8.27
2023-02-05T04:52:47.230Z,7.57
2023-02-05T04:55:18.338Z,7.85
2023-02-05T04:57:50.767Z,7.00
2023-02-05T05:00:23.242Z,6.90
2023-02-05T05:02:56.929Z,7.88
2023-02-05T05:05:27.705Z,6.80
2023-02-05T05:07:58.521Z,7.38
2023-02-05T05:10:29.266Z,7.20
2023-02-05T05:13:02.977Z,6.72
2023-02-05T05:15:34.094Z,7.07
2023-02-05T05:18:07.923Z,6.80
2023-02-05T05:20:38.660Z,6.20
2023-02-05T05:23:09.431Z,7.63
2023-02-05T05:25:45.130Z,7.28
2023-02-05T05:28:17.632Z,6.93
2023-02-05T05:30:49.308Z,7.00
2023-02-05T05:33:22.804Z,6.97
2023-02-05T05:35:53.719Z,6.30
2023-02-05T05:38:24.511Z,6.10
2023-02-05T05:41:07.611Z,6.78
2023-02-05T05:43:50.870Z,6.30
2023-02-05T05:46:24.392Z,7.00
2023-02-05T05:48:59.883Z,7.15
2023-02-05T05:51:32.844Z,5.70
2023-02-05T05:54:03.723Z,6.57
2023-02-05T05:56:36.034Z,5.82
2023-02-05T05:59:07.083Z,6.43
2023-02-05T06:01:37.893Z,6.72
2023-02-05T06:04:12.045Z,6.13
2023-02-05T06:06:42.946Z,5.82
2023-02-05T06:09:14.062Z,6.35
2023-02-05T06:11:44.842Z,6.50
2023-02-05T06:14:15.665Z,6.82
2023-02-05T06:16:46.449Z,5.47
2023-02-05T06:19:19.911Z,6.40
2023-02-05T06:21:50.665Z,6.20
2023-02-05T06:24:21.522Z,6.30
2023-02-05T06:26:52.320Z,6.30
2023-02-05T06:29:23.103Z,6.38
2023-02-05T06:31:54.115Z,5.65
2023-02-05T06:34:27.583Z,5.72
2023-02-05T06:36:58.466Z,5.95
2023-02-05T06:39:29.486Z,5.82
2023-02-05T06:42:00.331Z,6.75
2023-02-05T06:44:31.091Z,5.78
2023-02-05T06:47:02.016Z,6.20
2023-02-05T06:49:35.513Z,6.32
2023-02-05T06:52:07.105Z,6.72
2023-02-05T06:54:39.007Z,6.80
2023-02-05T06:57:09.904Z,6.25
2023-02-05T06:59:40.952Z,6.78
2023-02-05T07:02:15.386Z,6.40
2023-02-05T07:04:49.033Z,6.38
2023-02-05T07:07:19.994Z,5.80
2023-02-05T07:09:51.048Z,6.38
2023-02-05T07:12:21.954Z,6.40
2023-02-05T07:14:52.762Z,6.20
2023-02-05T07:17:23.870Z,5.78
2023-02-05T07:19:58.959Z,6.30
2023-02-05T07:22:29.769Z,5.72
2023-02-05T07:25:03.210Z,5.78
2023-02-05T07:27:35.046Z,7.38
2023-02-05T07:30:05.987Z,7.15
2023-02-05T07:32:36.746Z,8.98
2023-02-05T07:35:10.425Z,8.25
2023-02-05T07:37:41.160Z,8.60
2023-02-05T07:40:13.097Z,9.40
2023-02-05T07:42:43.853Z,8.57
2023-02-05T07:45:16.153Z,7.32
2023-02-05T07:47:47.019Z,9.02
2023-02-05T07:50:22.973Z,20.85
2023-02-05T07:52:53.835Z,11.02
2023-02-05T07:55:24.725Z,7.30
2023-02-05T07:57:55.546Z,7.07
2023-02-05T08:00:27.772Z,6.65
2023-02-05T08:02:58.729Z,7.18
2023-02-05T08:05:32.629Z,7.78
2023-02-05T08:08:03.837Z,7.75
2023-02-05T08:10:35.771Z,7.05
2023-02-05T08:13:06.708Z,6.55
2023-02-05T08:15:37.572Z,6.38
2023-02-05T08:18:08.692Z,7.30
2023-02-05T08:20:42.118Z,7.07
2023-02-05T08:23:13.000Z,6.75
2023-02-05T08:25:43.915Z,7.30
2023-02-05T08:28:14.905Z,6.35
2023-02-05T08:30:45.789Z,5.97
2023-02-05T08:33:16.558Z,7.15
2023-02-05T08:35:49.968Z,5.95
2023-02-05T08:38:21.029Z,5.93
2023-02-05T08:40:51.956Z,5.60
2023-02-05T08:43:22.800Z,6.45
2023-02-05T08:45:53.687Z,5.85
2023-02-05T08:48:24.516Z,6.65
2023-02-05T08:50:57.911Z,6.97
2023-02-05T08:53:28.711Z,7.03
2023-02-05T08:56:00.126Z,7.45
2023-02-05T08:58:31.774Z,7.05
2023-02-05T09:01:06.234Z,6.72
2023-02-05T09:03:37.454Z,7.25
2023-02-05T09:06:13.927Z,6.40
2023-02-05T09:08:45.177Z,7.25
2023-02-05T09:11:16.074Z,7.18
2023-02-05T09:13:46.916Z,7.13
2023-02-05T09:16:17.826Z,6.22
2023-02-05T09:18:48.713Z,6.68
2023-02-05T09:21:22.176Z,6.72
2023-02-05T09:23:53.088Z,6.88
2023-02-05T09:26:24.470Z,6.70
2023-02-05T09:28:55.362Z,6.25
2023-02-05T09:31:26.260Z,6.25
2023-02-05T09:33:58.124Z,6.32
2023-02-05T09:36:31.512Z,6.10
2023-02-05T09:39:13.679Z,5.28
2023-02-05T09:41:57.360Z,6.18
2023-02-05T09:44:46.295Z,5.30
2023-02-05T09:47:27.063Z,6.53
2023-02-05T09:50:06.928Z,5.70
2023-02-05T09:52:43.897Z,6.43
2023-02-05T09:57:52.254Z,5.85
2023-02-05T10:00:27.736Z,6.13
2023-02-05T10:03:10.934Z,5.10
2023-02-05T10:05:48.389Z,6.25
2023-02-05T10:08:30.552Z,5.38
2023-02-05T10:11:02.226Z,6.07
2023-02-05T10:13:38.687Z,6.32
2023-02-05T10:16:43.739Z,5.93
2023-02-05T10:19:39.626Z,6.32
2023-02-05T10:22:24.019Z,7.20
2023-02-05T10:25:11.566Z,6.65
2023-02-05T10:27:49.128Z,7.10
2023-02-05T10:30:24.755Z,8.98
2023-02-05T10:33:00.872Z,7.03
2023-02-05T10:35:44.568Z,7.77
2023-02-05T10:38:20.275Z,6.32
2023-02-05T10:40:57.184Z,6.10
2023-02-05T10:43:33.030Z,5.65
2023-02-05T10:46:05.181Z,5.25
2023-02-05T10:48:49.288Z,5.95
2023-02-05T10:51:24.650Z,6.00
2023-02-05T10:53:55.943Z,6.03
2023-02-05T10:56:29.464Z,4.93
2023-02-05T10:59:04.816Z,5.40
2023-02-05T11:01:38.350Z,5.15
2023-02-05T11:04:11.195Z,4.97
2023-02-05T11:06:45.497Z,4.72
2023-02-05T11:09:34.981Z,4.07
2023-02-05T11:12:17.904Z,4.28
2023-02-05T11:14:58.391Z,3.85
2023-02-05T11:17:34.207Z,5.03
2023-02-05T11:20:08.883Z,5.80
2023-02-05T11:22:41.761Z,4.07
2023-02-05T11:25:20.627Z,7.65
2023-02-05T11:27:58.042Z,3.92
2023-02-05T11:30:49.997Z,5.18
2023-02-05T11:33:31.448Z,4.22
2023-02-05T11:36:05.381Z,3.10
2023-02-05T11:38:40.400Z,3.20
2023-02-05T11:41:13.264Z,2.97
2023-02-05T11:43:53.185Z,3.15
2023-02-05T11:46:26.828Z,3.55
2023-02-05T11:49:01.369Z,3.67
2023-02-05T11:51:44.788Z,4.30
2023-02-05T11:54:23.773Z,3.00
2023-02-05T11:57:08.754Z,8.18
2023-02-05T11:59:44.899Z,3.72
2023-02-05T12:02:34.932Z,3.13
2023-02-05T12:05:21.897Z,2.85
2023-02-05T12:07:58.187Z,3.35
2023-02-05T12:10:38.314Z,2.97
2023-02-05T12:13:19.931Z,3.10
2023-02-05T12:16:03.103Z,3.50
2023-02-05T12:18:46.387Z,2.65
2023-02-05T12:21:24.780Z,2.40
2023-02-05T12:24:25.123Z,2.90
2023-02-05T12:27:07.620Z,2.65
2023-02-05T12:29:54.955Z,3.17
2023-02-05T12:32:43.603Z,2.35
2023-02-05T12:35:47.991Z,2.50
2023-02-05T12:38:32.359Z,2.60
2023-02-05T12:41:17.742Z,2.67
2023-02-05T12:43:50.518Z,2.38
2023-02-05T12:46:44.939Z,2.10
2023-02-05T12:49:32.861Z,1.90
2023-02-05T12:52:26.376Z,1.92
2023-02-05T12:55:13.843Z,1.33
2023-02-05T12:57:48.714Z,1.80
2023-02-05T13:00:25.845Z,1.60
2023-02-05T13:03:02.270Z,2.20
2023-02-05T13:05:40.027Z,2.10
2023-02-05T13:08:17.050Z,2.17
2023-02-05T13:13:26.908Z,2.03
2023-02-05T13:16:04.971Z,2.05
2023-02-05T13:18:41.277Z,2.13
2023-02-05T13:21:30.660Z,2.50
2023-02-05T13:24:27.535Z,2.95
2023-02-05T13:27:10.825Z,1.63
2023-02-05T13:29:51.614Z,2.60
2023-02-05T13:32:31.428Z,2.28
2023-02-05T13:35:02.309Z,1.80
2023-02-05T13:37:54.198Z,1.90
2023-02-05T13:40:52.769Z,1.63
2023-02-05T13:43:52.831Z,2.03
2023-02-05T13:46:56.553Z,1.92
2023-02-05T13:50:07.475Z,1.80
2023-02-05T13:53:23.918Z,4.32
2023-02-05T13:56:27.038Z,1.35
2023-02-05T13:59:00.914Z,1.90
2023-02-05T14:01:35.014Z,1.85
2023-02-05T14:04:09.994Z,1.63
2023-02-05T14:06:43.433Z,1.60
2023-02-05T14:09:26.063Z,1.88
2023-02-05T14:11:59.048Z,1.20
2023-02-05T14:14:32.893Z,1.33
2023-02-05T14:17:04.721Z,1.02
2023-02-05T14:19:57.221Z,1.10
2023-02-05T14:22:43.152Z,1.20
2023-02-05T14:25:46.359Z,1.45
2023-02-05T14:28:46.227Z,1.40
2023-02-05T14:31:50.981Z,0.98
2023-02-05T14:34:49.172Z,1.40
2023-02-05T14:37:39.130Z,1.63
2023-02-05T14:40:29.334Z,1.55
2023-02-05T14:43:10.393Z,1.38
2023-02-05T14:45:51.950Z,1.30
2023-02-05T14:48:29.747Z,1.30
2023-02-05T14:51:17.195Z,1.25
2023-02-05T14:59:07.505Z,1.67
2023-02-05T15:01:50.839Z,1.30
2023-02-05T15:04:42.894Z,1.20
2023-02-05T15:07:17.874Z,1.20
2023-02-05T15:09:54.422Z,1.10
2023-02-05T15:12:58.691Z,1.73
2023-02-05T15:15:33.989Z,1.45
2023-02-05T15:18:27.277Z,1.52
2023-02-05T15:20:59.636Z,1.30
2023-02-05T15:23:38.329Z,1.15
2023-02-05T15:26:11.998Z,1.48
2023-02-05T15:28:48.699Z,1.52
2023-02-05T15:31:29.233Z,1.42
2023-02-05T15:34:14.204Z,1.60
2023-02-05T15:36:51.715Z,1.50
2023-02-05T15:39:29.674Z,1.50
2023-02-05T15:42:03.083Z,1.52
2023-02-05T15:44:35.974Z,2.20
2023-02-05T15:47:15.683Z,1.65
2023-02-05T15:49:52.058Z,1.58
2023-02-05T15:52:26.386Z,1.25
2023-02-05T15:55:00.007Z,1.20
2023-02-05T15:57:32.551Z,1.95
2023-02-05T16:00:06.976Z,1.98
2023-02-05T16:02:40.231Z,1.60
2023-02-05T16:05:24.012Z,1.60
2023-02-05T16:07:59.228Z,1.30
2023-02-05T16:10:32.168Z,1.88
2023-02-05T16:13:04.337Z,1.98
2023-02-05T16:15:41.509Z,1.50
2023-02-05T16:18:20.230Z,1.65
2023-02-05T16:20:56.851Z,1.27
2023-02-05T16:23:32.358Z,1.15
2023-02-05T16:26:07.694Z,1.38
2023-02-05T16:28:41.606Z,1.35
2023-02-05T16:31:18.848Z,1.30
2023-02-05T16:33:55.288Z,0.98
2023-02-05T16:36:32.937Z,1.50
2023-02-05T16:39:07.423Z,1.20
2023-02-05T16:41:41.542Z,1.70
2023-02-05T16:44:32.308Z,1.75
2023-02-05T16:47:15.578Z,1.70
2023-02-05T16:49:47.645Z,2.28
2023-02-05T16:52:45.695Z,2.67
2023-02-05T16:58:08.451Z,3.35
2023-02-05T17:00:39.478Z,2.63
2023-02-05T17:03:20.386Z,2.10
2023-02-05T17:05:59.698Z,3.08
2023-02-05T17:08:36.796Z,2.55
2023-02-05T17:11:09.268Z,2.22
2023-02-05T17:13:42.404Z,2.80
2023-02-05T17:16:30.553Z,2.35
2023-02-05T17:19:02.687Z,3.30
2023-02-05T17:21:35.513Z,2.65
2023-02-05T17:24:09.874Z,2.92
2023-02-05T17:26:43.249Z,3.35
2023-02-05T17:29:18.997Z,2.63
2023-02-05T17:31:49.917Z,3.25
2023-02-05T17:34:20.893Z,3.05
2023-02-05T17:36:51.947Z,2.60
2023-02-05T17:39:25.309Z,2.20
2023-02-05T17:42:08.665Z,4.18
2023-02-05T17:44:39.962Z,3.17
2023-02-05T17:47:13.158Z,2.55
2023-02-05T17:49:44.832Z,2.25
2023-02-05T17:52:15.634Z,2.17
2023-02-05T17:54:49.236Z,2.58
2023-02-05T17:57:22.095Z,3.45
2023-02-05T17:59:53.515Z,2.55
2023-02-05T18:02:24.549Z,2.60
2023-02-05T18:04:55.587Z,2.65
2023-02-05T18:07:33.670Z,2.88
2023-02-05T18:10:08.476Z,3.20
2023-02-05T18:12:39.794Z,2.88
2023-02-05T18:15:11.746Z,2.17
2023-02-05T18:17:42.739Z,2.58
2023-02-05T18:20:14.776Z,2.50
2023-02-05T18:22:45.927Z,2.08
2023-02-05T18:25:20.189Z,2.03
2023-02-05T18:27:51.112Z,2.60
2023-02-05T18:30:22.293Z,2.30
2023-02-05T18:32:53.179Z,3.03
2023-02-05T18:35:24.121Z,2.20
2023-02-05T18:37:55.148Z,2.33
2023-02-05T18:40:29.826Z,2.17
2023-02-05T18:43:01.574Z,2.10
2023-02-05T18:45:32.602Z,2.58
2023-02-05T18:48:04.081Z,2.40
2023-02-05T18:50:35.185Z,2.80
2023-02-05T18:53:06.906Z,2.78
2023-02-05T18:55:40.670Z,2.78
2023-02-05T18:58:12.535Z,3.22
2023-02-05T19:00:44.815Z,3.38
2023-02-05T19:03:16.016Z,3.38
2023-02-05T19:05:46.877Z,3.70
2023-02-05T19:08:18.712Z,3.60
2023-02-05T19:10:52.204Z,4.07
2023-02-05T19:13:23.167Z,3.92
2023-02-05T19:15:55.290Z,4.10
2023-02-05T19:18:26.205Z,3.17
2023-02-05T19:20:57.050Z,3.90
2023-02-05T19:23:27.955Z,3.65
2023-02-05T19:26:04.724Z,2.78
2023-02-05T19:28:39.154Z,2.97
2023-02-05T19:31:13.571Z,3.70
2023-02-05T19:33:46.578Z,3.63
2023-02-05T19:39:12.839Z,3.65
2023-02-05T19:41:48.637Z,3.13
2023-02-05T19:44:19.459Z,3.03
2023-02-05T19:46:51.251Z,2.92
2023-02-05T19:49:26.693Z,3.47
2023-02-05T19:51:59.826Z,3.50
2023-02-05T19:54:30.948Z,2.88
2023-02-05T19:57:04.436Z,3.13
2023-02-05T19:59:37.150Z,3.80
2023-02-05T20:02:07.993Z,3.50
2023-02-05T20:04:38.785Z,3.67
2023-02-05T20:07:12.126Z,3.58
2023-02-05T20:09:43.060Z,3.45
2023-02-05T20:12:16.501Z,3.75
2023-02-05T20:14:47.272Z,4.00
2023-02-05T20:17:19.231Z,5.90
2023-02-05T20:19:59.621Z,3.80
2023-02-05T20:22:36.767Z,4.63
2023-02-05T20:25:07.794Z,4.15
2023-02-05T20:27:41.165Z,3.47
2023-02-05T20:30:27.325Z,4.28
2023-02-05T20:32:58.290Z,4.20
2023-02-05T20:35:29.133Z,5.78
2023-02-05T20:38:00.029Z,5.93
2023-02-05T20:40:30.949Z,5.05
2023-02-05T20:43:07.366Z,5.75
2023-02-05T20:45:38.175Z,5.45
2023-02-05T20:48:09.306Z,3.55
2023-02-05T20:50:40.146Z,3.72
2023-02-05T20:53:11.106Z,3.40
2023-02-05T20:55:41.972Z,3.67
2023-02-05T20:58:17.910Z,3.90
2023-02-05T21:00:48.810Z,4.40
2023-02-05T21:03:19.568Z,3.55
2023-02-05T21:05:51.510Z,3.58
2023-02-05T21:08:23.624Z,4.25
2023-02-05T21:10:55.456Z,3.47
2023-02-05T21:13:29.423Z,3.38
2023-02-05T21:16:02.923Z,4.45
2023-02-05T21:18:34.479Z,4.45
2023-02-05T21:21:13.271Z,4.20
2023-02-05T21:23:46.240Z,4.90
2023-02-05T21:26:24.890Z,4.00
2023-02-05T21:28:59.758Z,4.90
2023-02-05T21:31:34.112Z,4.88
2023-02-05T21:34:05.536Z,5.53
2023-02-05T21:36:36.641Z,4.65
2023-02-05T21:39:07.858Z,5.18
2023-02-05T21:41:38.663Z,4.85
2023-02-05T21:44:12.484Z,4.03
2023-02-05T21:46:43.607Z,5.32
2023-02-05T21:49:14.970Z,4.60
2023-02-05T21:51:45.783Z,4.90
2023-02-05T21:54:16.889Z,4.78
2023-02-05T21:56:47.701Z,4.95
2023-02-05T21:59:21.182Z,4.10
2023-02-05T22:01:52.067Z,3.80
2023-02-05T22:04:23.162Z,3.45
2023-02-05T22:06:54.453Z,3.08
2023-02-05T22:09:25.222Z,3.55
2023-02-05T22:11:56.639Z,3.13
2023-02-05T22:14:30.239Z,4.20
2023-02-05T22:17:01.060Z,4.82
2023-02-05T22:19:32.102Z,4.93
2023-02-05T22:22:02.847Z,5.18
2023-02-05T22:24:33.838Z,5.78
2023-02-05T22:27:04.739Z,4.72
2023-02-05T22:29:38.106Z,4.18
2023-02-05T22:32:08.916Z,3.72
2023-02-05T22:34:43.241Z,4.55
2023-02-05T22:37:14.302Z,4.82
2023-02-05T22:39:45.453Z,4.80
2023-02-05T22:42:18.207Z,3.72
2023-02-05T22:44:52.362Z,3.67
2023-02-05T22:47:23.118Z,3.35
2023-02-05T22:49:53.926Z,3.83
2023-02-05T22:52:24.735Z,3.80
2023-02-05T22:54:55.465Z,4.28
2023-02-05T22:57:26.154Z,3.03
2023-02-05T22:59:59.508Z,3.78
2023-02-05T23:02:30.245Z,3.30
2023-02-05T23:05:00.929Z,3.53
2023-02-05T23:07:31.666Z,4.30
2023-02-05T23:10:02.555Z,4.32
2023-02-05T23:12:33.426Z,3.70
2023-02-05T23:15:07.325Z,3.13
2023-02-05T23:17:38.119Z,4.20
2023-02-05T23:20:10.388Z,3.38
2023-02-05T23:22:41.133Z,3.75
2023-02-05T23:25:12.907Z,3.85
2023-02-05T23:27:44.352Z,4.38
2023-02-05T23:30:18.846Z,5.43
2023-02-05T23:32:49.637Z,4.95
2023-02-05T23:35:20.577Z,5.43
2023-02-05T23:37:51.455Z,5.47
2023-02-05T23:40:23.014Z,4.57
2023-02-05T23:42:53.764Z,4.13
2023-02-05T23:45:27.138Z,4.25
2023-02-05T23:47:58.495Z,3.65
2023-02-05T23:50:29.284Z,3.85
2023-02-05T23:53:00.142Z,3.67
2023-02-05T23:55:31.321Z,3.97
2023-02-05T23:58:02.069Z,3.63
